sensor_id;sensor_type;location;lat;lon;timestamp;P1;durP1;ratioP1;P2;durP2;ratioP2
11004;SDS011;5555;59.622;16.556;2024-01-30T00:02:16;63.67;;;32.87;;
11004;SDS011;5555;59.622;16.556;2024-01-30T00:04:42;69.50;;;34.67;;
11004;SDS011;5555;59.622;16.556;2024-01-30T00:07:07;84.03;;;37.57;;
11004;SDS011;5555;59.622;16.556;2024-01-30T00:09:33;71.80;;;33.37;;
11004;SDS011;5555;59.622;16.556;2024-01-30T00:11:59;64.20;;;32.97;;
11004;SDS011;5555;59.622;16.556;2024-01-30T00:14:24;63.43;;;34.63;;
11004;SDS011;5555;59.622;16.556;2024-01-30T00:16:50;61.30;;;32.23;;
11004;SDS011;5555;59.622;16.556;2024-01-30T00:19:16;61.93;;;32.03;;
11004;SDS011;5555;59.622;16.556;2024-01-30T00:21:42;53.87;;;31.83;;
11004;SDS011;5555;59.622;16.556;2024-01-30T00:24:08;63.27;;;34.00;;
11004;SDS011;5555;59.622;16.556;2024-01-30T00:26:34;70.00;;;33.73;;
11004;SDS011;5555;59.622;16.556;2024-01-30T00:28:59;62.63;;;33.97;;
11004;SDS011;5555;59.622;16.556;2024-01-30T00:31:25;62.93;;;32.27;;
11004;SDS011;5555;59.622;16.556;2024-01-30T00:33:51;52.83;;;30.20;;
11004;SDS011;5555;59.622;16.556;2024-01-30T00:36:16;62.37;;;32.53;;
11004;SDS011;5555;59.622;16.556;2024-01-30T00:38:42;64.20;;;33.60;;
11004;SDS011;5555;59.622;16.556;2024-01-30T00:41:08;70.10;;;35.83;;
11004;SDS011;5555;59.622;16.556;2024-01-30T00:43:34;66.77;;;34.23;;
11004;SDS011;5555;59.622;16.556;2024-01-30T00:46:00;70.87;;;34.17;;
11004;SDS011;5555;59.622;16.556;2024-01-30T00:48:26;60.77;;;31.43;;
11004;SDS011;5555;59.622;16.556;2024-01-30T00:50:51;57.20;;;30.23;;
11004;SDS011;5555;59.622;16.556;2024-01-30T00:53:17;53.90;;;29.47;;
11004;SDS011;5555;59.622;16.556;2024-01-30T00:55:43;59.77;;;31.07;;
11004;SDS011;5555;59.622;16.556;2024-01-30T00:58:09;60.17;;;33.27;;
11004;SDS011;5555;59.622;16.556;2024-01-30T01:00:34;68.60;;;34.23;;
11004;SDS011;5555;59.622;16.556;2024-01-30T01:03:00;59.60;;;33.40;;
11004;SDS011;5555;59.622;16.556;2024-01-30T01:05:26;92.90;;;42.43;;
11004;SDS011;5555;59.622;16.556;2024-01-30T01:07:52;90.17;;;39.93;;
11004;SDS011;5555;59.622;16.556;2024-01-30T01:10:17;78.07;;;39.67;;
11004;SDS011;5555;59.622;16.556;2024-01-30T01:12:43;81.77;;;38.97;;
11004;SDS011;5555;59.622;16.556;2024-01-30T01:15:10;63.47;;;33.47;;
11004;SDS011;5555;59.622;16.556;2024-01-30T01:17:36;72.10;;;39.33;;
11004;SDS011;5555;59.622;16.556;2024-01-30T01:20:02;77.93;;;40.17;;
11004;SDS011;5555;59.622;16.556;2024-01-30T01:22:30;79.90;;;42.13;;
11004;SDS011;5555;59.622;16.556;2024-01-30T01:24:56;80.03;;;43.23;;
11004;SDS011;5555;59.622;16.556;2024-01-30T01:27:21;108.90;;;46.57;;
11004;SDS011;5555;59.622;16.556;2024-01-30T01:29:47;85.00;;;42.93;;
11004;SDS011;5555;59.622;16.556;2024-01-30T01:32:13;70.80;;;40.43;;
11004;SDS011;5555;59.622;16.556;2024-01-30T01:34:39;73.23;;;42.30;;
11004;SDS011;5555;59.622;16.556;2024-01-30T01:37:04;361.33;;;72.17;;
11004;SDS011;5555;59.622;16.556;2024-01-30T01:39:30;90.33;;;41.40;;
11004;SDS011;5555;59.622;16.556;2024-01-30T01:41:56;906.90;;;136.47;;
11004;SDS011;5555;59.622;16.556;2024-01-30T01:44:21;138.43;;;46.60;;
11004;SDS011;5555;59.622;16.556;2024-01-30T01:46:47;155.63;;;52.13;;
11004;SDS011;5555;59.622;16.556;2024-01-30T01:49:13;358.27;;;73.50;;
11004;SDS011;5555;59.622;16.556;2024-01-30T01:51:39;259.30;;;62.57;;
11004;SDS011;5555;59.622;16.556;2024-01-30T01:54:07;251.03;;;61.00;;
11004;SDS011;5555;59.622;16.556;2024-01-30T01:56:33;185.83;;;52.00;;
11004;SDS011;5555;59.622;16.556;2024-01-30T01:59:04;456.10;;;79.90;;
11004;SDS011;5555;59.622;16.556;2024-01-30T02:01:32;368.67;;;71.67;;
11004;SDS011;5555;59.622;16.556;2024-01-30T02:03:59;319.27;;;64.53;;
11004;SDS011;5555;59.622;16.556;2024-01-30T02:06:25;154.87;;;46.07;;
11004;SDS011;5555;59.622;16.556;2024-01-30T02:08:51;82.83;;;39.50;;
11004;SDS011;5555;59.622;16.556;2024-01-30T02:11:16;85.73;;;38.27;;
11004;SDS011;5555;59.622;16.556;2024-01-30T02:13:43;81.03;;;38.37;;
11004;SDS011;5555;59.622;16.556;2024-01-30T02:16:09;80.17;;;37.53;;
11004;SDS011;5555;59.622;16.556;2024-01-30T02:18:35;138.43;;;45.17;;
11004;SDS011;5555;59.622;16.556;2024-01-30T02:21:06;128.50;;;41.80;;
11004;SDS011;5555;59.622;16.556;2024-01-30T02:23:32;476.27;;;80.20;;
11004;SDS011;5555;59.622;16.556;2024-01-30T02:25:59;368.43;;;66.23;;
11004;SDS011;5555;59.622;16.556;2024-01-30T02:28:25;327.60;;;61.27;;
11004;SDS011;5555;59.622;16.556;2024-01-30T02:30:51;81.47;;;38.13;;
11004;SDS011;5555;59.622;16.556;2024-01-30T02:33:16;112.07;;;42.87;;
11004;SDS011;5555;59.622;16.556;2024-01-30T02:35:42;103.43;;;39.50;;
11004;SDS011;5555;59.622;16.556;2024-01-30T02:38:08;70.93;;;35.03;;
11004;SDS011;5555;59.622;16.556;2024-01-30T02:40:33;74.97;;;34.43;;
11004;SDS011;5555;59.622;16.556;2024-01-30T02:42:59;129.27;;;40.93;;
11004;SDS011;5555;59.622;16.556;2024-01-30T02:45:26;158.10;;;40.07;;
11004;SDS011;5555;59.622;16.556;2024-01-30T02:47:51;119.40;;;35.63;;
11004;SDS011;5555;59.622;16.556;2024-01-30T02:50:17;76.53;;;33.30;;
11004;SDS011;5555;59.622;16.556;2024-01-30T02:52:43;77.37;;;31.53;;
11004;SDS011;5555;59.622;16.556;2024-01-30T02:55:11;147.13;;;33.50;;
11004;SDS011;5555;59.622;16.556;2024-01-30T02:57:37;60.87;;;27.03;;
11004;SDS011;5555;59.622;16.556;2024-01-30T03:00:03;56.63;;;26.50;;
11004;SDS011;5555;59.622;16.556;2024-01-30T03:02:31;54.67;;;24.33;;
11004;SDS011;5555;59.622;16.556;2024-01-30T03:04:57;56.57;;;27.10;;
11004;SDS011;5555;59.622;16.556;2024-01-30T03:07:23;77.97;;;26.80;;
11004;SDS011;5555;59.622;16.556;2024-01-30T03:09:49;61.23;;;25.87;;
11004;SDS011;5555;59.622;16.556;2024-01-30T03:12:14;88.77;;;29.90;;
11004;SDS011;5555;59.622;16.556;2024-01-30T03:14:40;87.93;;;31.23;;
11004;SDS011;5555;59.622;16.556;2024-01-30T03:17:06;97.33;;;25.67;;
11004;SDS011;5555;59.622;16.556;2024-01-30T03:19:31;528.63;;;65.97;;
11004;SDS011;5555;59.622;16.556;2024-01-30T03:21:57;64.53;;;25.03;;
11004;SDS011;5555;59.622;16.556;2024-01-30T03:24:22;91.43;;;24.20;;
11004;SDS011;5555;59.622;16.556;2024-01-30T03:26:48;419.57;;;47.23;;
11004;SDS011;5555;59.622;16.556;2024-01-30T03:29:14;87.73;;;23.27;;
11004;SDS011;5555;59.622;16.556;2024-01-30T03:31:39;157.50;;;28.83;;
11004;SDS011;5555;59.622;16.556;2024-01-30T03:34:05;77.13;;;23.87;;
11004;SDS011;5555;59.622;16.556;2024-01-30T03:36:30;55.93;;;20.33;;
11004;SDS011;5555;59.622;16.556;2024-01-30T03:38:58;357.83;;;41.33;;
11004;SDS011;5555;59.622;16.556;2024-01-30T03:41:24;305.87;;;38.37;;
11004;SDS011;5555;59.622;16.556;2024-01-30T03:43:50;64.97;;;20.23;;
11004;SDS011;5555;59.622;16.556;2024-01-30T03:46:15;69.80;;;24.23;;
11004;SDS011;5555;59.622;16.556;2024-01-30T03:48:41;158.77;;;29.30;;
11004;SDS011;5555;59.622;16.556;2024-01-30T03:51:06;190.57;;;32.67;;
11004;SDS011;5555;59.622;16.556;2024-01-30T03:53:32;276.47;;;40.10;;
11004;SDS011;5555;59.622;16.556;2024-01-30T03:55:58;156.70;;;29.53;;
11004;SDS011;5555;59.622;16.556;2024-01-30T03:58:23;466.70;;;60.40;;
11004;SDS011;5555;59.622;16.556;2024-01-30T04:00:49;599.60;;;75.00;;
11004;SDS011;5555;59.622;16.556;2024-01-30T04:03:15;61.00;;;23.10;;
11004;SDS011;5555;59.622;16.556;2024-01-30T04:05:40;55.73;;;23.93;;
11004;SDS011;5555;59.622;16.556;2024-01-30T04:08:06;57.47;;;22.63;;
11004;SDS011;5555;59.622;16.556;2024-01-30T04:10:32;66.03;;;24.27;;
11004;SDS011;5555;59.622;16.556;2024-01-30T04:12:58;421.10;;;48.20;;
11004;SDS011;5555;59.622;16.556;2024-01-30T04:15:24;66.10;;;21.73;;
11004;SDS011;5555;59.622;16.556;2024-01-30T04:17:50;61.33;;;21.27;;
11004;SDS011;5555;59.622;16.556;2024-01-30T04:20:16;83.43;;;23.53;;
11004;SDS011;5555;59.622;16.556;2024-01-30T04:22:45;70.53;;;22.60;;
11004;SDS011;5555;59.622;16.556;2024-01-30T04:25:12;47.27;;;19.80;;
11004;SDS011;5555;59.622;16.556;2024-01-30T04:27:38;80.87;;;24.10;;
11004;SDS011;5555;59.622;16.556;2024-01-30T04:30:04;38.00;;;19.07;;
11004;SDS011;5555;59.622;16.556;2024-01-30T04:32:30;45.10;;;18.97;;
11004;SDS011;5555;59.622;16.556;2024-01-30T04:34:57;54.60;;;18.90;;
11004;SDS011;5555;59.622;16.556;2024-01-30T04:37:22;36.00;;;16.87;;
11004;SDS011;5555;59.622;16.556;2024-01-30T04:39:48;36.37;;;16.67;;
11004;SDS011;5555;59.622;16.556;2024-01-30T04:42:14;36.87;;;16.47;;
11004;SDS011;5555;59.622;16.556;2024-01-30T04:44:39;30.43;;;15.57;;
11004;SDS011;5555;59.622;16.556;2024-01-30T04:47:05;52.43;;;19.27;;
11004;SDS011;5555;59.622;16.556;2024-01-30T04:49:33;25.00;;;14.50;;
11004;SDS011;5555;59.622;16.556;2024-01-30T04:51:59;28.20;;;16.17;;
11004;SDS011;5555;59.622;16.556;2024-01-30T04:54:25;30.30;;;14.93;;
11004;SDS011;5555;59.622;16.556;2024-01-30T04:56:50;27.47;;;14.43;;
11004;SDS011;5555;59.622;16.556;2024-01-30T04:59:16;34.83;;;14.77;;
11004;SDS011;5555;59.622;16.556;2024-01-30T05:01:42;62.57;;;17.77;;
11004;SDS011;5555;59.622;16.556;2024-01-30T05:04:07;63.50;;;19.10;;
11004;SDS011;5555;59.622;16.556;2024-01-30T05:06:33;30.50;;;14.83;;
11004;SDS011;5555;59.622;16.556;2024-01-30T05:08:59;35.83;;;15.53;;
11004;SDS011;5555;59.622;16.556;2024-01-30T05:11:25;26.70;;;14.40;;
11004;SDS011;5555;59.622;16.556;2024-01-30T05:13:50;23.33;;;13.13;;
11004;SDS011;5555;59.622;16.556;2024-01-30T05:16:16;22.43;;;12.27;;
11004;SDS011;5555;59.622;16.556;2024-01-30T05:18:41;40.63;;;13.93;;
11004;SDS011;5555;59.622;16.556;2024-01-30T05:21:07;26.30;;;12.73;;
11004;SDS011;5555;59.622;16.556;2024-01-30T05:23:33;31.20;;;12.40;;
11004;SDS011;5555;59.622;16.556;2024-01-30T05:25:59;25.17;;;12.40;;
11004;SDS011;5555;59.622;16.556;2024-01-30T05:28:26;19.20;;;11.90;;
11004;SDS011;5555;59.622;16.556;2024-01-30T05:30:51;24.53;;;10.27;;
11004;SDS011;5555;59.622;16.556;2024-01-30T05:33:17;17.30;;;11.23;;
11004;SDS011;5555;59.622;16.556;2024-01-30T05:35:43;27.60;;;11.33;;
11004;SDS011;5555;59.622;16.556;2024-01-30T05:38:08;29.93;;;10.77;;
11004;SDS011;5555;59.622;16.556;2024-01-30T05:40:36;18.17;;;10.43;;
11004;SDS011;5555;59.622;16.556;2024-01-30T05:43:01;25.03;;;11.83;;
11004;SDS011;5555;59.622;16.556;2024-01-30T05:45:27;54.63;;;14.57;;
11004;SDS011;5555;59.622;16.556;2024-01-30T05:47:53;26.73;;;11.57;;
11004;SDS011;5555;59.622;16.556;2024-01-30T05:50:19;28.83;;;12.70;;
11004;SDS011;5555;59.622;16.556;2024-01-30T05:52:45;24.47;;;11.37;;
11004;SDS011;5555;59.622;16.556;2024-01-30T05:55:11;18.17;;;11.03;;
11004;SDS011;5555;59.622;16.556;2024-01-30T05:57:37;31.37;;;12.83;;
11004;SDS011;5555;59.622;16.556;2024-01-30T06:00:03;26.13;;;11.70;;
11004;SDS011;5555;59.622;16.556;2024-01-30T06:02:30;35.60;;;12.07;;
11004;SDS011;5555;59.622;16.556;2024-01-30T06:04:56;23.93;;;11.07;;
11004;SDS011;5555;59.622;16.556;2024-01-30T06:07:22;20.60;;;11.27;;
11004;SDS011;5555;59.622;16.556;2024-01-30T06:09:47;22.40;;;12.87;;
11004;SDS011;5555;59.622;16.556;2024-01-30T06:12:13;36.77;;;13.23;;
11004;SDS011;5555;59.622;16.556;2024-01-30T06:14:38;23.63;;;12.33;;
11004;SDS011;5555;59.622;16.556;2024-01-30T06:17:04;24.50;;;12.33;;
11004;SDS011;5555;59.622;16.556;2024-01-30T06:19:30;24.63;;;11.93;;
11004;SDS011;5555;59.622;16.556;2024-01-30T06:21:56;27.10;;;12.33;;
11004;SDS011;5555;59.622;16.556;2024-01-30T06:24:21;36.23;;;12.40;;
11004;SDS011;5555;59.622;16.556;2024-01-30T06:26:47;22.67;;;11.73;;
11004;SDS011;5555;59.622;16.556;2024-01-30T06:29:12;20.33;;;11.80;;
11004;SDS011;5555;59.622;16.556;2024-01-30T06:31:42;22.23;;;13.03;;
11004;SDS011;5555;59.622;16.556;2024-01-30T06:34:09;29.23;;;11.20;;
11004;SDS011;5555;59.622;16.556;2024-01-30T06:36:35;25.10;;;13.13;;
11004;SDS011;5555;59.622;16.556;2024-01-30T06:39:01;22.23;;;12.30;;
11004;SDS011;5555;59.622;16.556;2024-01-30T06:41:27;27.53;;;11.77;;
11004;SDS011;5555;59.622;16.556;2024-01-30T06:43:53;19.17;;;10.53;;
11004;SDS011;5555;59.622;16.556;2024-01-30T06:46:19;17.27;;;11.00;;
11004;SDS011;5555;59.622;16.556;2024-01-30T06:48:44;21.00;;;11.03;;
11004;SDS011;5555;59.622;16.556;2024-01-30T06:51:10;19.10;;;10.10;;
11004;SDS011;5555;59.622;16.556;2024-01-30T06:53:37;15.90;;;9.80;;
11004;SDS011;5555;59.622;16.556;2024-01-30T06:56:02;21.90;;;10.27;;
11004;SDS011;5555;59.622;16.556;2024-01-30T06:58:28;17.50;;;9.93;;
11004;SDS011;5555;59.622;16.556;2024-01-30T07:00:54;20.10;;;10.03;;
11004;SDS011;5555;59.622;16.556;2024-01-30T07:03:20;16.23;;;8.97;;
11004;SDS011;5555;59.622;16.556;2024-01-30T07:05:46;16.03;;;9.23;;
11004;SDS011;5555;59.622;16.556;2024-01-30T07:08:12;15.73;;;8.90;;
11004;SDS011;5555;59.622;16.556;2024-01-30T07:10:38;16.20;;;9.07;;
11004;SDS011;5555;59.622;16.556;2024-01-30T07:13:03;17.53;;;8.60;;
11004;SDS011;5555;59.622;16.556;2024-01-30T07:15:30;15.77;;;9.57;;
11004;SDS011;5555;59.622;16.556;2024-01-30T07:17:56;20.53;;;8.83;;
11004;SDS011;5555;59.622;16.556;2024-01-30T07:20:22;24.53;;;8.90;;
11004;SDS011;5555;59.622;16.556;2024-01-30T07:22:47;15.60;;;9.27;;
11004;SDS011;5555;59.622;16.556;2024-01-30T07:25:13;23.30;;;9.90;;
11004;SDS011;5555;59.622;16.556;2024-01-30T07:27:39;17.80;;;10.07;;
11004;SDS011;5555;59.622;16.556;2024-01-30T07:30:04;15.30;;;9.87;;
11004;SDS011;5555;59.622;16.556;2024-01-30T07:32:31;20.77;;;10.77;;
11004;SDS011;5555;59.622;16.556;2024-01-30T07:34:57;18.23;;;11.00;;
11004;SDS011;5555;59.622;16.556;2024-01-30T07:37:22;16.30;;;9.73;;
11004;SDS011;5555;59.622;16.556;2024-01-30T07:39:48;23.70;;;10.10;;
11004;SDS011;5555;59.622;16.556;2024-01-30T07:42:13;21.43;;;9.53;;
11004;SDS011;5555;59.622;16.556;2024-01-30T07:44:39;25.50;;;10.27;;
11004;SDS011;5555;59.622;16.556;2024-01-30T07:47:05;15.63;;;8.97;;
11004;SDS011;5555;59.622;16.556;2024-01-30T07:49:30;17.67;;;8.90;;
11004;SDS011;5555;59.622;16.556;2024-01-30T07:51:56;22.73;;;11.20;;
11004;SDS011;5555;59.622;16.556;2024-01-30T07:54:22;16.50;;;10.17;;
11004;SDS011;5555;59.622;16.556;2024-01-30T07:56:48;16.63;;;8.67;;
11004;SDS011;5555;59.622;16.556;2024-01-30T07:59:14;17.00;;;8.53;;
11004;SDS011;5555;59.622;16.556;2024-01-30T08:01:41;22.13;;;8.67;;
11004;SDS011;5555;59.622;16.556;2024-01-30T08:04:06;51.37;;;12.13;;
11004;SDS011;5555;59.622;16.556;2024-01-30T08:06:32;14.17;;;7.87;;
11004;SDS011;5555;59.622;16.556;2024-01-30T08:08:58;14.77;;;8.80;;
11004;SDS011;5555;59.622;16.556;2024-01-30T08:11:24;11.07;;;8.37;;
11004;SDS011;5555;59.622;16.556;2024-01-30T08:13:54;10.63;;;7.17;;
11004;SDS011;5555;59.622;16.556;2024-01-30T08:16:20;10.47;;;7.40;;
11004;SDS011;5555;59.622;16.556;2024-01-30T08:18:46;10.40;;;8.00;;
11004;SDS011;5555;59.622;16.556;2024-01-30T08:21:12;20.33;;;9.20;;
11004;SDS011;5555;59.622;16.556;2024-01-30T08:23:38;16.90;;;8.50;;
11004;SDS011;5555;59.622;16.556;2024-01-30T08:26:04;9.73;;;6.93;;
11004;SDS011;5555;59.622;16.556;2024-01-30T08:28:30;14.97;;;7.00;;
11004;SDS011;5555;59.622;16.556;2024-01-30T08:30:56;8.73;;;6.87;;
11004;SDS011;5555;59.622;16.556;2024-01-30T08:33:22;9.33;;;7.10;;
11004;SDS011;5555;59.622;16.556;2024-01-30T08:35:47;9.43;;;6.87;;
11004;SDS011;5555;59.622;16.556;2024-01-30T08:38:13;12.97;;;6.60;;
11004;SDS011;5555;59.622;16.556;2024-01-30T08:40:39;8.00;;;6.73;;
11004;SDS011;5555;59.622;16.556;2024-01-30T08:43:04;7.93;;;6.13;;
11004;SDS011;5555;59.622;16.556;2024-01-30T08:45:30;9.07;;;6.77;;
11004;SDS011;5555;59.622;16.556;2024-01-30T08:47:56;8.53;;;6.23;;
11004;SDS011;5555;59.622;16.556;2024-01-30T08:50:21;9.47;;;6.13;;
11004;SDS011;5555;59.622;16.556;2024-01-30T08:52:47;8.87;;;5.93;;
11004;SDS011;5555;59.622;16.556;2024-01-30T08:55:13;10.43;;;6.30;;
11004;SDS011;5555;59.622;16.556;2024-01-30T08:57:38;11.97;;;7.23;;
11004;SDS011;5555;59.622;16.556;2024-01-30T09:00:04;12.20;;;7.43;;
11004;SDS011;5555;59.622;16.556;2024-01-30T09:02:32;12.77;;;8.33;;
11004;SDS011;5555;59.622;16.556;2024-01-30T09:04:58;11.50;;;7.63;;
11004;SDS011;5555;59.622;16.556;2024-01-30T09:07:23;10.13;;;7.37;;
11004;SDS011;5555;59.622;16.556;2024-01-30T09:09:49;11.30;;;8.50;;
11004;SDS011;5555;59.622;16.556;2024-01-30T09:12:14;13.20;;;8.80;;
11004;SDS011;5555;59.622;16.556;2024-01-30T09:14:40;10.67;;;8.40;;
11004;SDS011;5555;59.622;16.556;2024-01-30T09:17:06;11.00;;;8.43;;
11004;SDS011;5555;59.622;16.556;2024-01-30T09:19:32;10.83;;;8.17;;
11004;SDS011;5555;59.622;16.556;2024-01-30T09:21:57;10.27;;;8.10;;
11004;SDS011;5555;59.622;16.556;2024-01-30T09:24:23;10.17;;;7.60;;
11004;SDS011;5555;59.622;16.556;2024-01-30T09:26:50;8.67;;;7.67;;
11004;SDS011;5555;59.622;16.556;2024-01-30T09:29:15;7.60;;;6.90;;
11004;SDS011;5555;59.622;16.556;2024-01-30T09:31:45;9.27;;;7.77;;
11004;SDS011;5555;59.622;16.556;2024-01-30T09:34:10;8.97;;;7.70;;
11004;SDS011;5555;59.622;16.556;2024-01-30T09:36:36;9.70;;;7.17;;
11004;SDS011;5555;59.622;16.556;2024-01-30T09:39:02;9.57;;;7.27;;
11004;SDS011;5555;59.622;16.556;2024-01-30T09:41:29;6.90;;;6.23;;
11004;SDS011;5555;59.622;16.556;2024-01-30T09:43:58;7.27;;;6.53;;
11004;SDS011;5555;59.622;16.556;2024-01-30T09:46:26;6.03;;;5.03;;
11004;SDS011;5555;59.622;16.556;2024-01-30T09:48:53;6.60;;;4.97;;
11004;SDS011;5555;59.622;16.556;2024-01-30T09:51:20;5.83;;;5.13;;
11004;SDS011;5555;59.622;16.556;2024-01-30T09:53:47;16.33;;;6.43;;
11004;SDS011;5555;59.622;16.556;2024-01-30T09:56:14;6.60;;;5.90;;
11004;SDS011;5555;59.622;16.556;2024-01-30T09:58:39;10.93;;;6.17;;
11004;SDS011;5555;59.622;16.556;2024-01-30T10:01:05;10.77;;;6.70;;
11004;SDS011;5555;59.622;16.556;2024-01-30T10:03:31;15.37;;;6.27;;
11004;SDS011;5555;59.622;16.556;2024-01-30T10:05:56;8.80;;;7.00;;
11004;SDS011;5555;59.622;16.556;2024-01-30T10:08:23;11.07;;;7.10;;
11004;SDS011;5555;59.622;16.556;2024-01-30T10:10:49;9.47;;;7.03;;
11004;SDS011;5555;59.622;16.556;2024-01-30T10:13:15;14.63;;;7.33;;
11004;SDS011;5555;59.622;16.556;2024-01-30T10:15:41;9.47;;;7.23;;
11004;SDS011;5555;59.622;16.556;2024-01-30T10:18:08;16.23;;;6.73;;
11004;SDS011;5555;59.622;16.556;2024-01-30T10:20:35;8.43;;;6.73;;
11004;SDS011;5555;59.622;16.556;2024-01-30T10:23:00;8.47;;;6.83;;
11004;SDS011;5555;59.622;16.556;2024-01-30T10:25:26;8.97;;;6.93;;
11004;SDS011;5555;59.622;16.556;2024-01-30T10:27:55;8.53;;;6.97;;
11004;SDS011;5555;59.622;16.556;2024-01-30T10:30:24;11.53;;;7.53;;
11004;SDS011;5555;59.622;16.556;2024-01-30T10:32:50;13.53;;;8.10;;
11004;SDS011;5555;59.622;16.556;2024-01-30T10:35:16;11.63;;;7.80;;
11004;SDS011;5555;59.622;16.556;2024-01-30T10:37:46;12.80;;;8.50;;
11004;SDS011;5555;59.622;16.556;2024-01-30T10:40:13;16.00;;;7.97;;
11004;SDS011;5555;59.622;16.556;2024-01-30T10:42:42;14.77;;;8.90;;
11004;SDS011;5555;59.622;16.556;2024-01-30T10:45:10;11.83;;;8.63;;
11004;SDS011;5555;59.622;16.556;2024-01-30T10:47:42;10.83;;;7.10;;
11004;SDS011;5555;59.622;16.556;2024-01-30T10:50:13;9.60;;;6.67;;
11004;SDS011;5555;59.622;16.556;2024-01-30T10:52:39;9.50;;;7.37;;
11004;SDS011;5555;59.622;16.556;2024-01-30T10:55:09;9.30;;;6.47;;
11004;SDS011;5555;59.622;16.556;2024-01-30T10:57:35;11.50;;;6.30;;
11004;SDS011;5555;59.622;16.556;2024-01-30T11:00:08;6.50;;;5.67;;
11004;SDS011;5555;59.622;16.556;2024-01-30T11:02:39;7.97;;;5.20;;
11004;SDS011;5555;59.622;16.556;2024-01-30T11:05:07;10.20;;;5.43;;
11004;SDS011;5555;59.622;16.556;2024-01-30T11:07:34;7.37;;;6.07;;
11004;SDS011;5555;59.622;16.556;2024-01-30T11:10:00;7.20;;;5.80;;
11004;SDS011;5555;59.622;16.556;2024-01-30T11:12:29;10.67;;;7.10;;
11004;SDS011;5555;59.622;16.556;2024-01-30T11:17:42;11.50;;;6.53;;
11004;SDS011;5555;59.622;16.556;2024-01-30T11:20:12;10.17;;;6.47;;
11004;SDS011;5555;59.622;16.556;2024-01-30T11:23:01;10.03;;;6.10;;
11004;SDS011;5555;59.622;16.556;2024-01-30T11:25:32;9.30;;;6.77;;
11004;SDS011;5555;59.622;16.556;2024-01-30T11:27:58;9.03;;;6.13;;
11004;SDS011;5555;59.622;16.556;2024-01-30T11:35:37;7.43;;;6.47;;
11004;SDS011;5555;59.622;16.556;2024-01-30T11:38:07;9.83;;;7.43;;
11004;SDS011;5555;59.622;16.556;2024-01-30T11:40:36;10.03;;;7.47;;
11004;SDS011;5555;59.622;16.556;2024-01-30T11:43:03;9.33;;;7.37;;
11004;SDS011;5555;59.622;16.556;2024-01-30T11:45:30;10.10;;;7.00;;
11004;SDS011;5555;59.622;16.556;2024-01-30T11:47:56;10.40;;;7.67;;
11004;SDS011;5555;59.622;16.556;2024-01-30T11:50:25;12.77;;;8.70;;
11004;SDS011;5555;59.622;16.556;2024-01-30T11:52:50;11.90;;;8.60;;
11004;SDS011;5555;59.622;16.556;2024-01-30T11:55:16;15.60;;;8.93;;
11004;SDS011;5555;59.622;16.556;2024-01-30T11:57:42;13.93;;;9.17;;
11004;SDS011;5555;59.622;16.556;2024-01-30T12:00:16;21.03;;;11.97;;
11004;SDS011;5555;59.622;16.556;2024-01-30T12:02:43;19.73;;;10.90;;
11004;SDS011;5555;59.622;16.556;2024-01-30T12:05:09;15.20;;;9.00;;
11004;SDS011;5555;59.622;16.556;2024-01-30T12:07:35;25.00;;;11.13;;
11004;SDS011;5555;59.622;16.556;2024-01-30T12:10:01;22.20;;;11.10;;
11004;SDS011;5555;59.622;16.556;2024-01-30T12:12:28;28.20;;;11.07;;
11004;SDS011;5555;59.622;16.556;2024-01-30T12:14:55;22.30;;;11.03;;
11004;SDS011;5555;59.622;16.556;2024-01-30T12:17:26;20.17;;;10.90;;
11004;SDS011;5555;59.622;16.556;2024-01-30T12:20:08;21.87;;;12.00;;
11004;SDS011;5555;59.622;16.556;2024-01-30T12:22:43;19.47;;;10.30;;
11004;SDS011;5555;59.622;16.556;2024-01-30T12:25:11;15.73;;;9.53;;
11004;SDS011;5555;59.622;16.556;2024-01-30T12:27:44;17.43;;;10.80;;
11004;SDS011;5555;59.622;16.556;2024-01-30T12:30:12;23.40;;;11.97;;
11004;SDS011;5555;59.622;16.556;2024-01-30T12:32:40;19.00;;;12.20;;
11004;SDS011;5555;59.622;16.556;2024-01-30T12:35:08;17.50;;;11.43;;
11004;SDS011;5555;59.622;16.556;2024-01-30T12:37:38;18.20;;;12.13;;
11004;SDS011;5555;59.622;16.556;2024-01-30T12:40:04;16.47;;;10.67;;
11004;SDS011;5555;59.622;16.556;2024-01-30T12:42:31;17.83;;;11.30;;
11004;SDS011;5555;59.622;16.556;2024-01-30T12:44:57;19.80;;;11.43;;
11004;SDS011;5555;59.622;16.556;2024-01-30T12:47:24;16.03;;;11.40;;
11004;SDS011;5555;59.622;16.556;2024-01-30T12:49:49;19.13;;;12.00;;
11004;SDS011;5555;59.622;16.556;2024-01-30T12:52:18;16.83;;;11.13;;
11004;SDS011;5555;59.622;16.556;2024-01-30T12:54:45;20.90;;;12.97;;
11004;SDS011;5555;59.622;16.556;2024-01-30T12:57:11;17.13;;;11.17;;
11004;SDS011;5555;59.622;16.556;2024-01-30T12:59:36;15.70;;;10.53;;
11004;SDS011;5555;59.622;16.556;2024-01-30T13:02:03;16.37;;;11.00;;
11004;SDS011;5555;59.622;16.556;2024-01-30T13:04:29;16.07;;;11.20;;
11004;SDS011;5555;59.622;16.556;2024-01-30T13:06:54;18.77;;;11.43;;
11004;SDS011;5555;59.622;16.556;2024-01-30T13:09:20;18.73;;;11.43;;
11004;SDS011;5555;59.622;16.556;2024-01-30T13:11:46;19.63;;;12.37;;
11004;SDS011;5555;59.622;16.556;2024-01-30T13:14:12;18.43;;;12.13;;
11004;SDS011;5555;59.622;16.556;2024-01-30T13:16:37;18.80;;;12.47;;
11004;SDS011;5555;59.622;16.556;2024-01-30T13:19:03;15.27;;;11.40;;
11004;SDS011;5555;59.622;16.556;2024-01-30T13:21:29;16.13;;;11.70;;
11004;SDS011;5555;59.622;16.556;2024-01-30T13:23:55;14.53;;;11.10;;
11004;SDS011;5555;59.622;16.556;2024-01-30T13:26:21;16.17;;;11.47;;
11004;SDS011;5555;59.622;16.556;2024-01-30T13:28:47;18.90;;;11.93;;
11004;SDS011;5555;59.622;16.556;2024-01-30T13:31:13;16.93;;;12.17;;
11004;SDS011;5555;59.622;16.556;2024-01-30T13:33:39;15.87;;;11.27;;
11004;SDS011;5555;59.622;16.556;2024-01-30T13:36:05;19.23;;;11.47;;
11004;SDS011;5555;59.622;16.556;2024-01-30T13:38:35;16.97;;;11.30;;
11004;SDS011;5555;59.622;16.556;2024-01-30T13:41:01;18.20;;;11.60;;
11004;SDS011;5555;59.622;16.556;2024-01-30T13:43:27;18.10;;;12.03;;
11004;SDS011;5555;59.622;16.556;2024-01-30T13:45:53;18.30;;;12.87;;
11004;SDS011;5555;59.622;16.556;2024-01-30T13:48:19;17.80;;;12.83;;
11004;SDS011;5555;59.622;16.556;2024-01-30T13:50:44;20.43;;;13.20;;
11004;SDS011;5555;59.622;16.556;2024-01-30T13:53:11;19.93;;;14.50;;
11004;SDS011;5555;59.622;16.556;2024-01-30T13:55:37;21.70;;;16.33;;
11004;SDS011;5555;59.622;16.556;2024-01-30T13:58:04;25.70;;;17.70;;
11004;SDS011;5555;59.622;16.556;2024-01-30T14:00:30;19.13;;;13.87;;
11004;SDS011;5555;59.622;16.556;2024-01-30T14:02:56;23.13;;;14.03;;
11004;SDS011;5555;59.622;16.556;2024-01-30T14:05:23;20.40;;;12.77;;
11004;SDS011;5555;59.622;16.556;2024-01-30T14:07:49;19.63;;;12.73;;
11004;SDS011;5555;59.622;16.556;2024-01-30T14:10:16;17.93;;;11.80;;
11004;SDS011;5555;59.622;16.556;2024-01-30T14:12:42;18.17;;;11.80;;
11004;SDS011;5555;59.622;16.556;2024-01-30T14:15:09;15.80;;;11.37;;
11004;SDS011;5555;59.622;16.556;2024-01-30T14:17:35;14.37;;;11.40;;
11004;SDS011;5555;59.622;16.556;2024-01-30T14:20:01;16.00;;;11.00;;
11004;SDS011;5555;59.622;16.556;2024-01-30T14:22:28;14.97;;;11.17;;
11004;SDS011;5555;59.622;16.556;2024-01-30T14:24:54;15.17;;;11.67;;
11004;SDS011;5555;59.622;16.556;2024-01-30T14:27:21;13.00;;;11.03;;
11004;SDS011;5555;59.622;16.556;2024-01-30T14:29:47;12.27;;;10.53;;